sensor_id;sensor_type;location;lat;lon;timestamp;P1;durP1;ratioP1;P2;durP2;ratioP2
54947;SDS011;41113;41.882;12.530;2023-07-31T00:00:56;14.88;;;6.80;;
54947;SDS011;41113;41.882;12.530;2023-07-31T00:03:21;11.35;;;5.20;;
54947;SDS011;41113;41.882;12.530;2023-07-31T00:05:46;11.18;;;5.43;;
54947;SDS011;41113;41.882;12.530;2023-07-31T00:08:12;14.25;;;6.75;;
54947;SDS011;41113;41.882;12.530;2023-07-31T00:10:37;17.38;;;7.63;;
54947;SDS011;41113;41.882;12.530;2023-07-31T00:13:02;17.80;;;8.00;;
54947;SDS011;41113;41.882;12.530;2023-07-31T00:15:28;18.13;;;9.68;;
54947;SDS011;41113;41.882;12.530;2023-07-31T00:17:53;20.90;;;10.43;;
54947;SDS011;41113;41.882;12.530;2023-07-31T00:20:19;21.55;;;10.82;;
54947;SDS011;41113;41.882;12.530;2023-07-31T00:22:44;17.50;;;10.15;;
54947;SDS011;41113;41.882;12.530;2023-07-31T00:25:10;17.85;;;10.57;;
54947;SDS011;41113;41.882;12.530;2023-07-31T00:27:35;24.88;;;12.15;;
54947;SDS011;41113;41.882;12.530;2023-07-31T00:30:00;20.85;;;11.20;;
54947;SDS011;41113;41.882;12.530;2023-07-31T00:32:25;19.95;;;11.10;;
54947;SDS011;41113;41.882;12.530;2023-07-31T00:34:51;18.98;;;11.50;;
54947;SDS011;41113;41.882;12.530;2023-07-31T00:37:16;23.67;;;11.32;;
54947;SDS011;41113;41.882;12.530;2023-07-31T00:39:41;20.85;;;9.65;;
54947;SDS011;41113;41.882;12.530;2023-07-31T00:42:07;21.13;;;10.88;;
54947;SDS011;41113;41.882;12.530;2023-07-31T00:44:32;22.88;;;11.73;;
54947;SDS011;41113;41.882;12.530;2023-07-31T00:46:58;20.73;;;10.23;;
54947;SDS011;41113;41.882;12.530;2023-07-31T00:49:24;22.45;;;9.93;;
54947;SDS011;41113;41.882;12.530;2023-07-31T00:51:50;19.35;;;10.32;;
54947;SDS011;41113;41.882;12.530;2023-07-31T00:54:17;18.85;;;10.27;;
54947;SDS011;41113;41.882;12.530;2023-07-31T00:56:42;18.90;;;9.10;;
54947;SDS011;41113;41.882;12.530;2023-07-31T00:59:10;19.20;;;10.30;;
54947;SDS011;41113;41.882;12.530;2023-07-31T01:01:35;17.48;;;9.73;;
54947;SDS011;41113;41.882;12.530;2023-07-31T01:04:01;21.48;;;10.00;;
54947;SDS011;41113;41.882;12.530;2023-07-31T01:09:10;22.00;;;10.30;;
54947;SDS011;41113;41.882;12.530;2023-07-31T01:11:43;20.08;;;10.07;;
54947;SDS011;41113;41.882;12.530;2023-07-31T01:14:14;18.25;;;9.05;;
54947;SDS011;41113;41.882;12.530;2023-07-31T01:16:40;18.38;;;9.70;;
54947;SDS011;41113;41.882;12.530;2023-07-31T01:19:05;19.08;;;9.57;;
54947;SDS011;41113;41.882;12.530;2023-07-31T01:26:55;19.05;;;9.70;;
54947;SDS011;41113;41.882;12.530;2023-07-31T01:29:25;19.92;;;9.50;;
54947;SDS011;41113;41.882;12.530;2023-07-31T01:31:59;24.85;;;9.68;;
54947;SDS011;41113;41.882;12.530;2023-07-31T01:36:53;19.35;;;9.05;;
54947;SDS011;41113;41.882;12.530;2023-07-31T01:39:19;19.15;;;9.63;;
54947;SDS011;41113;41.882;12.530;2023-07-31T01:41:45;17.45;;;8.40;;
54947;SDS011;41113;41.882;12.530;2023-07-31T01:44:11;18.83;;;8.88;;
54947;SDS011;41113;41.882;12.530;2023-07-31T01:46:36;17.95;;;8.30;;
54947;SDS011;41113;41.882;12.530;2023-07-31T01:49:01;16.20;;;8.57;;
54947;SDS011;41113;41.882;12.530;2023-07-31T01:51:27;13.45;;;7.90;;
54947;SDS011;41113;41.882;12.530;2023-07-31T01:53:52;16.20;;;8.45;;
54947;SDS011;41113;41.882;12.530;2023-07-31T01:56:17;17.17;;;7.95;;
54947;SDS011;41113;41.882;12.530;2023-07-31T01:58:42;17.85;;;8.23;;
54947;SDS011;41113;41.882;12.530;2023-07-31T02:01:08;18.73;;;8.60;;
54947;SDS011;41113;41.882;12.530;2023-07-31T02:03:33;15.90;;;8.43;;
54947;SDS011;41113;41.882;12.530;2023-07-31T02:05:58;15.68;;;8.55;;
54947;SDS011;41113;41.882;12.530;2023-07-31T02:08:24;17.23;;;8.25;;
54947;SDS011;41113;41.882;12.530;2023-07-31T02:10:49;18.70;;;9.50;;
54947;SDS011;41113;41.882;12.530;2023-07-31T02:13:15;18.52;;;9.07;;
54947;SDS011;41113;41.882;12.530;2023-07-31T02:15:40;15.43;;;9.15;;
54947;SDS011;41113;41.882;12.530;2023-07-31T02:18:05;15.23;;;8.60;;
54947;SDS011;41113;41.882;12.530;2023-07-31T02:20:33;19.33;;;8.73;;
54947;SDS011;41113;41.882;12.530;2023-07-31T02:23:00;13.82;;;7.35;;
54947;SDS011;41113;41.882;12.530;2023-07-31T02:25:26;14.18;;;7.60;;
54947;SDS011;41113;41.882;12.530;2023-07-31T02:27:51;13.00;;;7.35;;
54947;SDS011;41113;41.882;12.530;2023-07-31T02:30:16;14.95;;;7.03;;
54947;SDS011;41113;41.882;12.530;2023-07-31T02:32:42;14.25;;;7.28;;
54947;SDS011;41113;41.882;12.530;2023-07-31T02:35:07;16.17;;;7.30;;
54947;SDS011;41113;41.882;12.530;2023-07-31T02:37:33;12.93;;;7.20;;
54947;SDS011;41113;41.882;12.530;2023-07-31T02:39:59;13.55;;;6.55;;
54947;SDS011;41113;41.882;12.530;2023-07-31T02:42:24;13.73;;;6.88;;
54947;SDS011;41113;41.882;12.530;2023-07-31T02:44:49;14.52;;;7.20;;
54947;SDS011;41113;41.882;12.530;2023-07-31T02:47:20;17.45;;;7.50;;
54947;SDS011;41113;41.882;12.530;2023-07-31T02:49:46;14.20;;;7.10;;
54947;SDS011;41113;41.882;12.530;2023-07-31T02:52:11;15.80;;;7.15;;
54947;SDS011;41113;41.882;12.530;2023-07-31T02:54:36;15.30;;;7.07;;
54947;SDS011;41113;41.882;12.530;2023-07-31T02:57:02;16.35;;;7.03;;
54947;SDS011;41113;41.882;12.530;2023-07-31T02:59:27;14.77;;;6.55;;
54947;SDS011;41113;41.882;12.530;2023-07-31T03:01:53;13.73;;;7.15;;
54947;SDS011;41113;41.882;12.530;2023-07-31T03:04:18;17.92;;;6.88;;
54947;SDS011;41113;41.882;12.530;2023-07-31T03:06:43;11.75;;;6.00;;
54947;SDS011;41113;41.882;12.530;2023-07-31T03:09:09;12.75;;;6.30;;
54947;SDS011;41113;41.882;12.530;2023-07-31T03:11:34;13.23;;;6.47;;
54947;SDS011;41113;41.882;12.530;2023-07-31T03:13:59;15.02;;;6.47;;
54947;SDS011;41113;41.882;12.530;2023-07-31T03:16:25;14.35;;;6.25;;
54947;SDS011;41113;41.882;12.530;2023-07-31T03:18:50;13.10;;;6.38;;
54947;SDS011;41113;41.882;12.530;2023-07-31T03:21:15;14.93;;;6.70;;
54947;SDS011;41113;41.882;12.530;2023-07-31T03:23:41;14.95;;;6.10;;
54947;SDS011;41113;41.882;12.530;2023-07-31T03:26:08;14.73;;;7.03;;
54947;SDS011;41113;41.882;12.530;2023-07-31T03:28:34;14.57;;;6.25;;
54947;SDS011;41113;41.882;12.530;2023-07-31T03:30:59;17.67;;;7.03;;
54947;SDS011;41113;41.882;12.530;2023-07-31T03:33:25;16.60;;;6.70;;
54947;SDS011;41113;41.882;12.530;2023-07-31T03:35:50;14.38;;;6.95;;
54947;SDS011;41113;41.882;12.530;2023-07-31T03:38:16;15.63;;;7.10;;
54947;SDS011;41113;41.882;12.530;2023-07-31T03:40:41;14.10;;;6.80;;
54947;SDS011;41113;41.882;12.530;2023-07-31T03:43:07;14.80;;;6.75;;
54947;SDS011;41113;41.882;12.530;2023-07-31T03:45:32;16.55;;;6.43;;
54947;SDS011;41113;41.882;12.530;2023-07-31T03:47:58;12.93;;;6.75;;
54947;SDS011;41113;41.882;12.530;2023-07-31T03:50:23;14.27;;;7.50;;
54947;SDS011;41113;41.882;12.530;2023-07-31T03:52:50;15.52;;;6.35;;
54947;SDS011;41113;41.882;12.530;2023-07-31T03:55:15;16.20;;;7.13;;
54947;SDS011;41113;41.882;12.530;2023-07-31T03:57:41;15.07;;;6.80;;
54947;SDS011;41113;41.882;12.530;2023-07-31T04:00:06;15.27;;;7.25;;
54947;SDS011;41113;41.882;12.530;2023-07-31T04:02:32;14.43;;;6.68;;
54947;SDS011;41113;41.882;12.530;2023-07-31T04:04:58;14.90;;;7.43;;
54947;SDS011;41113;41.882;12.530;2023-07-31T04:07:23;16.30;;;6.82;;
54947;SDS011;41113;41.882;12.530;2023-07-31T04:09:48;16.08;;;6.72;;
54947;SDS011;41113;41.882;12.530;2023-07-31T04:12:14;16.35;;;7.30;;
54947;SDS011;41113;41.882;12.530;2023-07-31T04:14:39;14.75;;;7.20;;
54947;SDS011;41113;41.882;12.530;2023-07-31T04:17:04;13.90;;;7.05;;
54947;SDS011;41113;41.882;12.530;2023-07-31T04:19:30;16.13;;;7.28;;
54947;SDS011;41113;41.882;12.530;2023-07-31T04:21:55;18.85;;;7.97;;
54947;SDS011;41113;41.882;12.530;2023-07-31T04:24:21;15.27;;;7.15;;
54947;SDS011;41113;41.882;12.530;2023-07-31T04:26:52;13.40;;;7.03;;
54947;SDS011;41113;41.882;12.530;2023-07-31T04:29:18;14.65;;;6.72;;
54947;SDS011;41113;41.882;12.530;2023-07-31T04:31:44;12.98;;;5.68;;
54947;SDS011;41113;41.882;12.530;2023-07-31T04:34:10;14.80;;;5.35;;
54947;SDS011;41113;41.882;12.530;2023-07-31T04:36:36;9.95;;;4.85;;
54947;SDS011;41113;41.882;12.530;2023-07-31T04:39:02;10.65;;;4.80;;
54947;SDS011;41113;41.882;12.530;2023-07-31T04:41:27;15.50;;;5.18;;
54947;SDS011;41113;41.882;12.530;2023-07-31T04:43:53;14.23;;;5.68;;
54947;SDS011;41113;41.882;12.530;2023-07-31T04:46:18;11.65;;;5.47;;
54947;SDS011;41113;41.882;12.530;2023-07-31T04:48:43;19.77;;;11.00;;
54947;SDS011;41113;41.882;12.530;2023-07-31T04:51:09;17.55;;;8.63;;
54947;SDS011;41113;41.882;12.530;2023-07-31T04:53:34;14.57;;;6.43;;
54947;SDS011;41113;41.882;12.530;2023-07-31T04:56:00;13.40;;;6.68;;
54947;SDS011;41113;41.882;12.530;2023-07-31T04:58:26;10.82;;;5.55;;
54947;SDS011;41113;41.882;12.530;2023-07-31T05:00:51;12.20;;;6.05;;
54947;SDS011;41113;41.882;12.530;2023-07-31T05:03:17;12.55;;;5.57;;
54947;SDS011;41113;41.882;12.530;2023-07-31T05:05:42;12.02;;;5.35;;
54947;SDS011;41113;41.882;12.530;2023-07-31T05:08:08;14.52;;;5.90;;
54947;SDS011;41113;41.882;12.530;2023-07-31T05:10:33;11.75;;;5.50;;
54947;SDS011;41113;41.882;12.530;2023-07-31T05:12:58;13.05;;;5.22;;
54947;SDS011;41113;41.882;12.530;2023-07-31T05:15:24;14.77;;;5.55;;
54947;SDS011;41113;41.882;12.530;2023-07-31T05:17:49;14.23;;;5.28;;
54947;SDS011;41113;41.882;12.530;2023-07-31T05:20:14;10.40;;;4.35;;
54947;SDS011;41113;41.882;12.530;2023-07-31T05:22:40;15.10;;;4.80;;
54947;SDS011;41113;41.882;12.530;2023-07-31T05:25:05;11.75;;;4.78;;
54947;SDS011;41113;41.882;12.530;2023-07-31T05:27:31;14.93;;;4.72;;
54947;SDS011;41113;41.882;12.530;2023-07-31T05:29:58;14.50;;;4.95;;
54947;SDS011;41113;41.882;12.530;2023-07-31T05:32:23;13.02;;;4.93;;
54947;SDS011;41113;41.882;12.530;2023-07-31T05:34:50;11.98;;;5.05;;
54947;SDS011;41113;41.882;12.530;2023-07-31T05:37:20;13.95;;;4.75;;
54947;SDS011;41113;41.882;12.530;2023-07-31T05:39:45;13.85;;;5.13;;
54947;SDS011;41113;41.882;12.530;2023-07-31T05:42:10;12.48;;;4.90;;
54947;SDS011;41113;41.882;12.530;2023-07-31T05:44:36;14.32;;;5.10;;
54947;SDS011;41113;41.882;12.530;2023-07-31T05:47:01;15.15;;;5.80;;
54947;SDS011;41113;41.882;12.530;2023-07-31T05:49:26;13.30;;;5.63;;
54947;SDS011;41113;41.882;12.530;2023-07-31T05:51:52;16.02;;;5.05;;
54947;SDS011;41113;41.882;12.530;2023-07-31T05:54:17;14.32;;;5.57;;
54947;SDS011;41113;41.882;12.530;2023-07-31T05:56:43;13.70;;;5.15;;
54947;SDS011;41113;41.882;12.530;2023-07-31T05:59:09;13.63;;;5.55;;
54947;SDS011;41113;41.882;12.530;2023-07-31T06:01:35;11.63;;;5.20;;
54947;SDS011;41113;41.882;12.530;2023-07-31T06:04:00;12.98;;;5.03;;
54947;SDS011;41113;41.882;12.530;2023-07-31T06:06:27;13.23;;;5.28;;
54947;SDS011;41113;41.882;12.530;2023-07-31T06:08:52;15.02;;;5.20;;
54947;SDS011;41113;41.882;12.530;2023-07-31T06:11:19;12.77;;;4.70;;
54947;SDS011;41113;41.882;12.530;2023-07-31T06:13:45;13.63;;;4.73;;
54947;SDS011;41113;41.882;12.530;2023-07-31T06:16:13;14.00;;;4.65;;
54947;SDS011;41113;41.882;12.530;2023-07-31T06:18:38;10.27;;;4.55;;
54947;SDS011;41113;41.882;12.530;2023-07-31T06:21:03;9.45;;;4.30;;
54947;SDS011;41113;41.882;12.530;2023-07-31T06:23:29;13.82;;;5.45;;
54947;SDS011;41113;41.882;12.530;2023-07-31T06:25:54;15.90;;;5.28;;
54947;SDS011;41113;41.882;12.530;2023-07-31T06:28:19;12.65;;;5.15;;
54947;SDS011;41113;41.882;12.530;2023-07-31T06:30:45;15.07;;;6.05;;
54947;SDS011;41113;41.882;12.530;2023-07-31T06:33:10;13.60;;;5.53;;
54947;SDS011;41113;41.882;12.530;2023-07-31T06:35:35;19.17;;;5.43;;
54947;SDS011;41113;41.882;12.530;2023-07-31T06:38:01;13.85;;;5.25;;
54947;SDS011;41113;41.882;12.530;2023-07-31T06:40:27;12.40;;;5.10;;
54947;SDS011;41113;41.882;12.530;2023-07-31T06:42:53;11.52;;;5.40;;
54947;SDS011;41113;41.882;12.530;2023-07-31T06:45:18;11.10;;;4.43;;
54947;SDS011;41113;41.882;12.530;2023-07-31T06:47:43;13.48;;;4.95;;
54947;SDS011;41113;41.882;12.530;2023-07-31T06:50:09;12.77;;;4.85;;
54947;SDS011;41113;41.882;12.530;2023-07-31T06:52:34;14.48;;;5.22;;
54947;SDS011;41113;41.882;12.530;2023-07-31T06:55:00;12.52;;;5.47;;
54947;SDS011;41113;41.882;12.530;2023-07-31T06:57:42;13.48;;;5.38;;
54947;SDS011;41113;41.882;12.530;2023-07-31T07:00:07;15.83;;;5.17;;
54947;SDS011;41113;41.882;12.530;2023-07-31T07:02:33;12.45;;;4.82;;
54947;SDS011;41113;41.882;12.530;2023-07-31T07:04:59;14.80;;;5.05;;
54947;SDS011;41113;41.882;12.530;2023-07-31T07:07:24;15.38;;;5.28;;
54947;SDS011;41113;41.882;12.530;2023-07-31T07:09:49;12.18;;;4.88;;
54947;SDS011;41113;41.882;12.530;2023-07-31T07:12:15;10.98;;;5.40;;
54947;SDS011;41113;41.882;12.530;2023-07-31T07:14:40;12.15;;;5.05;;
54947;SDS011;41113;41.882;12.530;2023-07-31T07:17:05;15.57;;;5.53;;
54947;SDS011;41113;41.882;12.530;2023-07-31T07:19:32;15.65;;;5.40;;
54947;SDS011;41113;41.882;12.530;2023-07-31T07:21:57;14.23;;;5.63;;
54947;SDS011;41113;41.882;12.530;2023-07-31T07:24:24;13.75;;;4.72;;
54947;SDS011;41113;41.882;12.530;2023-07-31T07:26:50;12.50;;;4.75;;
54947;SDS011;41113;41.882;12.530;2023-07-31T07:29:15;12.57;;;5.15;;
54947;SDS011;41113;41.882;12.530;2023-07-31T07:31:41;13.98;;;4.60;;
54947;SDS011;41113;41.882;12.530;2023-07-31T07:34:06;13.32;;;5.60;;
54947;SDS011;41113;41.882;12.530;2023-07-31T07:36:31;12.40;;;5.28;;
54947;SDS011;41113;41.882;12.530;2023-07-31T07:38:57;11.65;;;4.95;;
54947;SDS011;41113;41.882;12.530;2023-07-31T07:41:23;10.70;;;4.70;;
54947;SDS011;41113;41.882;12.530;2023-07-31T07:43:48;14.18;;;4.72;;
54947;SDS011;41113;41.882;12.530;2023-07-31T07:46:13;13.10;;;4.80;;
54947;SDS011;41113;41.882;12.530;2023-07-31T07:48:39;12.18;;;4.57;;
54947;SDS011;41113;41.882;12.530;2023-07-31T07:51:04;11.43;;;4.55;;
54947;SDS011;41113;41.882;12.530;2023-07-31T07:53:30;11.02;;;5.05;;
54947;SDS011;41113;41.882;12.530;2023-07-31T07:55:55;14.25;;;5.30;;
54947;SDS011;41113;41.882;12.530;2023-07-31T07:58:20;11.70;;;4.90;;
54947;SDS011;41113;41.882;12.530;2023-07-31T08:00:48;11.13;;;4.75;;
54947;SDS011;41113;41.882;12.530;2023-07-31T08:03:15;13.82;;;5.25;;
54947;SDS011;41113;41.882;12.530;2023-07-31T08:05:41;15.35;;;4.50;;
54947;SDS011;41113;41.882;12.530;2023-07-31T08:08:07;13.85;;;4.35;;
54947;SDS011;41113;41.882;12.530;2023-07-31T08:10:33;14.02;;;4.93;;
54947;SDS011;41113;41.882;12.530;2023-07-31T08:12:58;12.13;;;4.30;;
54947;SDS011;41113;41.882;12.530;2023-07-31T08:15:23;11.00;;;4.63;;
54947;SDS011;41113;41.882;12.530;2023-07-31T08:17:49;10.80;;;4.13;;
54947;SDS011;41113;41.882;12.530;2023-07-31T08:20:14;15.38;;;4.25;;
54947;SDS011;41113;41.882;12.530;2023-07-31T08:22:39;9.15;;;3.83;;
54947;SDS011;41113;41.882;12.530;2023-07-31T08:25:05;10.18;;;4.03;;
54947;SDS011;41113;41.882;12.530;2023-07-31T08:27:31;10.27;;;4.05;;
54947;SDS011;41113;41.882;12.530;2023-07-31T08:29:57;13.20;;;4.35;;
54947;SDS011;41113;41.882;12.530;2023-07-31T08:32:22;13.32;;;4.43;;
54947;SDS011;41113;41.882;12.530;2023-07-31T08:34:48;12.57;;;4.55;;
54947;SDS011;41113;41.882;12.530;2023-07-31T08:37:14;14.38;;;4.53;;
54947;SDS011;41113;41.882;12.530;2023-07-31T08:39:39;9.20;;;3.90;;
54947;SDS011;41113;41.882;12.530;2023-07-31T08:42:07;10.27;;;3.70;;
54947;SDS011;41113;41.882;12.530;2023-07-31T08:44:33;11.73;;;3.97;;
54947;SDS011;41113;41.882;12.530;2023-07-31T08:46:59;11.32;;;4.45;;
54947;SDS011;41113;41.882;12.530;2023-07-31T08:49:25;9.52;;;3.97;;
54947;SDS011;41113;41.882;12.530;2023-07-31T08:51:52;10.98;;;4.18;;
54947;SDS011;41113;41.882;12.530;2023-07-31T08:54:19;11.15;;;4.10;;
54947;SDS011;41113;41.882;12.530;2023-07-31T08:56:45;10.43;;;3.72;;
54947;SDS011;41113;41.882;12.530;2023-07-31T08:59:11;11.55;;;4.28;;
54947;SDS011;41113;41.882;12.530;2023-07-31T09:01:40;8.75;;;3.85;;
54947;SDS011;41113;41.882;12.530;2023-07-31T09:04:10;9.18;;;3.60;;
54947;SDS011;41113;41.882;12.530;2023-07-31T09:06:38;9.50;;;3.40;;
54947;SDS011;41113;41.882;12.530;2023-07-31T09:09:04;8.93;;;2.97;;
54947;SDS011;41113;41.882;12.530;2023-07-31T09:11:29;9.50;;;3.67;;
54947;SDS011;41113;41.882;12.530;2023-07-31T09:13:56;9.88;;;3.20;;
54947;SDS011;41113;41.882;12.530;2023-07-31T09:16:29;8.48;;;3.38;;
54947;SDS011;41113;41.882;12.530;2023-07-31T09:18:56;8.65;;;3.30;;
54947;SDS011;41113;41.882;12.530;2023-07-31T09:21:23;27.60;;;5.70;;
54947;SDS011;41113;41.882;12.530;2023-07-31T09:23:49;16.77;;;4.10;;
54947;SDS011;41113;41.882;12.530;2023-07-31T09:26:32;11.77;;;3.80;;
54947;SDS011;41113;41.882;12.530;2023-07-31T09:28:59;10.35;;;3.67;;
54947;SDS011;41113;41.882;12.530;2023-07-31T09:31:32;12.15;;;3.67;;
54947;SDS011;41113;41.882;12.530;2023-07-31T09:33:57;11.85;;;3.92;;
54947;SDS011;41113;41.882;12.530;2023-07-31T09:36:23;9.00;;;3.38;;
54947;SDS011;41113;41.882;12.530;2023-07-31T09:38:48;11.80;;;4.00;;
54947;SDS011;41113;41.882;12.530;2023-07-31T09:41:13;9.20;;;3.28;;
54947;SDS011;41113;41.882;12.530;2023-07-31T09:43:39;11.30;;;3.30;;
54947;SDS011;41113;41.882;12.530;2023-07-31T09:46:04;8.63;;;3.42;;
54947;SDS011;41113;41.882;12.530;2023-07-31T09:48:38;10.85;;;3.30;;
54947;SDS011;41113;41.882;12.530;2023-07-31T09:51:04;12.40;;;3.80;;
54947;SDS011;41113;41.882;12.530;2023-07-31T09:53:30;7.45;;;2.80;;
54947;SDS011;41113;41.882;12.530;2023-07-31T09:55:56;12.15;;;3.50;;
54947;SDS011;41113;41.882;12.530;2023-07-31T09:58:23;9.65;;;3.10;;
54947;SDS011;41113;41.882;12.530;2023-07-31T10:00:53;8.40;;;3.22;;
54947;SDS011;41113;41.882;12.530;2023-07-31T10:03:18;9.68;;;3.22;;
54947;SDS011;41113;41.882;12.530;2023-07-31T10:05:50;9.52;;;3.17;;
54947;SDS011;41113;41.882;12.530;2023-07-31T10:08:19;12.93;;;3.65;;
54947;SDS011;41113;41.882;12.530;2023-07-31T10:10:48;13.82;;;4.20;;
54947;SDS011;41113;41.882;12.530;2023-07-31T10:13:14;9.38;;;3.15;;
54947;SDS011;41113;41.882;12.530;2023-07-31T10:15:41;8.57;;;3.00;;
54947;SDS011;41113;41.882;12.530;2023-07-31T10:18:08;9.48;;;3.15;;
54947;SDS011;41113;41.882;12.530;2023-07-31T10:20:34;10.35;;;3.83;;
54947;SDS011;41113;41.882;12.530;2023-07-31T10:23:01;10.85;;;3.28;;
54947;SDS011;41113;41.882;12.530;2023-07-31T10:25:27;8.52;;;2.83;;
54947;SDS011;41113;41.882;12.530;2023-07-31T10:27:52;8.85;;;3.25;;
54947;SDS011;41113;41.882;12.530;2023-07-31T10:30:20;8.50;;;3.20;;
54947;SDS011;41113;41.882;12.530;2023-07-31T10:32:50;8.98;;;3.42;;
54947;SDS011;41113;41.882;12.530;2023-07-31T10:35:17;8.00;;;2.95;;
54947;SDS011;41113;41.882;12.530;2023-07-31T10:37:43;9.57;;;3.40;;
54947;SDS011;41113;41.882;12.530;2023-07-31T10:40:18;11.05;;;3.25;;
54947;SDS011;41113;41.882;12.530;2023-07-31T10:42:51;8.45;;;3.20;;
54947;SDS011;41113;41.882;12.530;2023-07-31T10:45:37;8.18;;;3.03;;
54947;SDS011;41113;41.882;12.530;2023-07-31T10:48:14;7.90;;;3.10;;
54947;SDS011;41113;41.882;12.530;2023-07-31T10:55:49;9.68;;;3.00;;
54947;SDS011;41113;41.882;12.530;2023-07-31T10:58:18;8.40;;;3.40;;
54947;SDS011;41113;41.882;12.530;2023-07-31T11:00:45;8.30;;;3.47;;
54947;SDS011;41113;41.882;12.530;2023-07-31T11:03:13;8.63;;;3.40;;
54947;SDS011;41113;41.882;12.530;2023-07-31T11:13:31;7.53;;;3.08;;
54947;SDS011;41113;41.882;12.530;2023-07-31T11:15:57;9.73;;;3.35;;
54947;SDS011;41113;41.882;12.530;2023-07-31T11:18:23;9.10;;;3.95;;
54947;SDS011;41113;41.882;12.530;2023-07-31T11:20:49;9.60;;;3.78;;
54947;SDS011;41113;41.882;12.530;2023-07-31T11:23:15;9.05;;;3.72;;
54947;SDS011;41113;41.882;12.530;2023-07-31T11:25:42;9.90;;;3.58;;
54947;SDS011;41113;41.882;12.530;2023-07-31T11:28:14;12.68;;;3.63;;
54947;SDS011;41113;41.882;12.530;2023-07-31T11:30:41;8.30;;;3.20;;
54947;SDS011;41113;41.882;12.530;2023-07-31T11:33:07;10.15;;;3.75;;
54947;SDS011;41113;41.882;12.530;2023-07-31T11:35:40;8.75;;;3.47;;
54947;SDS011;41113;41.882;12.530;2023-07-31T11:38:07;7.47;;;3.30;;
54947;SDS011;41113;41.882;12.530;2023-07-31T11:40:40;9.60;;;3.30;;
54947;SDS011;41113;41.882;12.530;2023-07-31T11:43:06;8.82;;;3.25;;
54947;SDS011;41113;41.882;12.530;2023-07-31T11:45:32;8.80;;;3.13;;
54947;SDS011;41113;41.882;12.530;2023-07-31T11:48:00;8.07;;;3.15;;
54947;SDS011;41113;41.882;12.530;2023-07-31T11:50:25;12.20;;;3.60;;
54947;SDS011;41113;41.882;12.530;2023-07-31T11:52:53;9.25;;;3.90;;
54947;SDS011;41113;41.882;12.530;2023-07-31T11:55:22;9.27;;;3.40;;
54947;SDS011;41113;41.882;12.530;2023-07-31T11:57:48;8.20;;;3.03;;
54947;SDS011;41113;41.882;12.530;2023-07-31T12:00:14;9.85;;;3.42;;
54947;SDS011;41113;41.882;12.530;2023-07-31T12:02:40;8.20;;;3.20;;
54947;SDS011;41113;41.882;12.530;2023-07-31T12:05:12;9.65;;;3.40;;
54947;SDS011;41113;41.882;12.530;2023-07-31T12:10:23;8.95;;;3.10;;
54947;SDS011;41113;41.882;12.530;2023-07-31T12:12:56;9.38;;;3.00;;
54947;SDS011;41113;41.882;12.530;2023-07-31T12:15:37;8.35;;;3.35;;
54947;SDS011;41113;41.882;12.530;2023-07-31T12:18:08;9.88;;;3.30;;
54947;SDS011;41113;41.882;12.530;2023-07-31T12:20:35;7.97;;;3.10;;
54947;SDS011;41113;41.882;12.530;2023-07-31T12:23:04;9.18;;;3.60;;
54947;SDS011;41113;41.882;12.530;2023-07-31T12:25:30;11.63;;;3.85;;
54947;SDS011;41113;41.882;12.530;2023-07-31T12:27:57;11.35;;;4.25;;
54947;SDS011;41113;41.882;12.530;2023-07-31T12:30:27;13.73;;;4.53;;
54947;SDS011;41113;41.882;12.530;2023-07-31T12:32:53;12.25;;;4.07;;
54947;SDS011;41113;41.882;12.530;2023-07-31T12:35:19;9.52;;;3.88;;
54947;SDS011;41113;41.882;12.530;2023-07-31T12:37:44;13.13;;;4.30;;
54947;SDS011;41113;41.882;12.530;2023-07-31T12:40:10;13.75;;;4.85;;
54947;SDS011;41113;41.882;12.530;2023-07-31T12:42:36;10.57;;;4.53;;
54947;SDS011;41113;41.882;12.530;2023-07-31T12:45:01;10.65;;;4.55;;
54947;SDS011;41113;41.882;12.530;2023-07-31T12:47:27;15.55;;;4.55;;
54947;SDS011;41113;41.882;12.530;2023-07-31T12:49:52;13.85;;;5.13;;
54947;SDS011;41113;41.882;12.530;2023-07-31T12:52:17;11.47;;;4.47;;
54947;SDS011;41113;41.882;12.530;2023-07-31T12:54:42;13.02;;;4.22;;
54947;SDS011;41113;41.882;12.530;2023-07-31T12:57:08;12.80;;;4.78;;
54947;SDS011;41113;41.882;12.530;2023-07-31T12:59:34;12.90;;;4.60;;
54947;SDS011;41113;41.882;12.530;2023-07-31T13:01:59;13.70;;;4.47;;
54947;SDS011;41113;41.882;12.530;2023-07-31T13:04:24;12.25;;;4.45;;
54947;SDS011;41113;41.882;12.530;2023-07-31T13:06:49;11.07;;;4.50;;
54947;SDS011;41113;41.882;12.530;2023-07-31T13:09:15;14.00;;;4.88;;
54947;SDS011;41113;41.882;12.530;2023-07-31T13:11:42;12.73;;;4.10;;
54947;SDS011;41113;41.882;12.530;2023-07-31T13:14:07;11.93;;;4.55;;
54947;SDS011;41113;41.882;12.530;2023-07-31T13:16:33;13.65;;;4.35;;
54947;SDS011;41113;41.882;12.530;2023-07-31T13:18:58;11.77;;;4.30;;
54947;SDS011;41113;41.882;12.530;2023-07-31T13:21:24;11.77;;;4.38;;
54947;SDS011;41113;41.882;12.530;2023-07-31T13:23:49;11.95;;;4.20;;
54947;SDS011;41113;41.882;12.530;2023-07-31T13:26:14;9.23;;;3.87;;
54947;SDS011;41113;41.882;12.530;2023-07-31T13:28:39;11.00;;;4.05;;
54947;SDS011;41113;41.882;12.530;2023-07-31T13:31:05;9.87;;;4.43;;
54947;SDS011;41113;41.882;12.530;2023-07-31T13:33:30;11.40;;;4.43;;
54947;SDS011;41113;41.882;12.530;2023-07-31T13:35:55;11.00;;;4.37;;
54947;SDS011;41113;41.882;12.530;2023-07-31T13:38:21;13.50;;;4.47;;
54947;SDS011;41113;41.882;12.530;2023-07-31T13:40:46;11.93;;;4.43;;
54947;SDS011;41113;41.882;12.530;2023-07-31T13:43:11;11.10;;;4.28;;
54947;SDS011;41113;41.882;12.530;2023-07-31T13:45:37;12.32;;;4.45;;
54947;SDS011;41113;41.882;12.530;2023-07-31T13:48:02;11.55;;;4.72;;
54947;SDS011;41113;41.882;12.530;2023-07-31T13:50:28;13.20;;;4.18;;
54947;SDS011;41113;41.882;12.530;2023-07-31T13:52:54;11.10;;;4.05;;
54947;SDS011;41113;41.882;12.530;2023-07-31T13:55:19;10.70;;;4.35;;
54947;SDS011;41113;41.882;12.530;2023-07-31T13:57:45;14.90;;;4.57;;
54947;SDS011;41113;41.882;12.530;2023-07-31T14:00:11;11.10;;;4.35;;
54947;SDS011;41113;41.882;12.530;2023-07-31T14:02:37;12.88;;;4.40;;
54947;SDS011;41113;41.882;12.530;2023-07-31T14:05:02;13.25;;;4.45;;
54947;SDS011;41113;41.882;12.530;2023-07-31T14:07:28;10.48;;;4.25;;
54947;SDS011;41113;41.882;12.530;2023-07-31T14:09:53;11.23;;;4.13;;
54947;SDS011;41113;41.882;12.530;2023-07-31T14:12:18;13.23;;;4.72;;
54947;SDS011;41113;41.882;12.530;2023-07-31T14:14:44;12.40;;;4.70;;
54947;SDS011;41113;41.882;12.530;2023-07-31T14:17:09;11.33;;;4.17;;
54947;SDS011;41113;41.882;12.530;2023-07-31T14:19:34;10.20;;;3.88;;
54947;SDS011;41113;41.882;12.530;2023-07-31T14:22:00;12.20;;;4.57;;
54947;SDS011;41113;41.882;12.530;2023-07-31T14:24:25;11.70;;;4.45;;
54947;SDS011;41113;41.882;12.530;2023-07-31T14:26:51;13.10;;;4.50;;
54947;SDS011;41113;41.882;12.530;2023-07-31T14:29:16;11.82;;;4.43;;
54947;SDS011;41113;41.882;12.530;2023-07-31T14:31:41;12.87;;;4.37;;
54947;SDS011;41113;41.882;12.530;2023-07-31T14:34:07;11.80;;;3.92;;
54947;SDS011;41113;41.882;12.530;2023-07-31T14:36:32;13.13;;;4.72;;
54947;SDS011;41113;41.882;12.530;2023-07-31T14:38:57;12.68;;;4.57;;
54947;SDS011;41113;41.882;12.530;2023-07-31T14:41:23;12.45;;;4.40;;
54947;SDS011;41113;41.882;12.530;2023-07-31T14:43:48;12.13;;;4.38;;